Time;durP1;ratioP1;P1;durP2;ratioP2;P2;SDS_P1;SDS_P2;PMS_P1;PMS_P2;Temp;Humidity;BMP_temperature;BMP_pressure;BME280_temperature;BME280_humidity;BME280_pressure;Samples;Min_cycle;Max_cycle;Signal;HPM_P1;HPM_P2
2022/01/04 00:02:10;;;;;;;16.67;4.65;;;;;;;;;;6221868;23;20016;-93
2022/01/04 00:04:36;;;;;;;14.93;4.60;;;;;;;;;;6222404;23;20024;-91
2022/01/04 00:07:02;;;;;;;22.63;4.88;;;;;;;;;;6196508;23;20030;-93
2022/01/04 00:09:28;;;;;;;24.35;3.95;;;;;;;;;;6196718;23;20012;-94
2022/01/04 00:14:20;;;;;;;14.85;3.72;;;;;;;;;;6248842;23;20020;-92
2022/01/04 00:16:47;;;;;;;15.30;5.00;;;;;;;;;;6248806;23;20079;-92
2022/01/04 00:19:13;;;;;;;17.13;3.90;;;;;;;;;;6221887;23;20055;-91
2022/01/04 00:21:39;;;;;;;18.35;5.03;;;;;;;;;;6196528;23;20476;-92
2022/01/04 00:24:06;;;;;;;16.00;5.18;;;;;;;;;;6221638;23;20074;-93
2022/01/04 00:26:32;;;;;;;20.48;4.75;;;;;;;;;;6196586;23;20031;-91
2022/01/04 00:28:58;;;;;;;16.60;4.35;;;;;;;;;;6196449;23;20442;-95
2022/01/04 00:31:24;;;;;;;19.27;4.40;;;;;;;;;;6195976;23;20019;-91
2022/01/04 00:33:50;;;;;;;9.52;4.05;;;;;;;;;;6248064;23;20538;-92
2022/01/04 00:36:17;;;;;;;13.95;4.18;;;;;;;;;;6247904;23;20016;-92
2022/01/04 00:38:43;;;;;;;18.20;4.65;;;;;;;;;;6196062;23;20046;-86
2022/01/04 00:41:09;;;;;;;13.57;4.40;;;;;;;;;;6195963;23;20012;-88
2022/01/04 00:43:35;;;;;;;18.27;5.50;;;;;;;;;;6220856;23;20091;-88
2022/01/04 00:46:01;;;;;;;12.73;4.10;;;;;;;;;;6221435;23;20020;-93
2022/01/04 00:50:54;;;;;;;19.05;4.53;;;;;;;;;;6221456;23;20024;-95
2022/01/04 00:53:20;;;;;;;15.35;5.13;;;;;;;;;;6223383;23;20024;-91
2022/01/04 00:55:46;;;;;;;26.58;5.25;;;;;;;;;;6222093;23;20024;-89
2022/01/04 00:58:12;;;;;;;20.05;5.43;;;;;;;;;;6221421;23;20026;-92
2022/01/04 01:00:38;;;;;;;12.32;4.78;;;;;;;;;;6221213;23;20019;-89
2022/01/04 01:03:04;;;;;;;28.05;5.68;;;;;;;;;;6190855;23;20020;-90
2022/01/04 01:05:32;;;;;;;16.10;4.63;;;;;;;;;;6190755;23;20096;-90
2022/01/04 01:07:58;;;;;;;28.73;5.20;;;;;;;;;;6190179;23;20091;-94
2022/01/04 01:10:43;;;;;;;21.95;6.63;;;;;;;;;;6190441;23;20016;-94
2022/01/04 01:13:10;;;;;;;28.20;5.57;;;;;;;;;;6190985;23;20477;-94
2022/01/04 01:15:39;;;;;;;30.70;5.35;;;;;;;;;;6191403;23;20339;-95
2022/01/04 01:18:06;;;;;;;18.85;5.07;;;;;;;;;;6190469;23;20442;-93
2022/01/04 01:20:32;;;;;;;25.33;5.65;;;;;;;;;;6190919;23;20048;-94
2022/01/04 01:22:58;;;;;;;18.98;5.43;;;;;;;;;;6216056;23;20036;-88
2022/01/04 01:25:24;;;;;;;22.40;5.13;;;;;;;;;;6215863;23;20520;-89
2022/01/04 01:27:50;;;;;;;24.70;6.82;;;;;;;;;;6191133;23;20339;-92
2022/01/04 01:30:17;;;;;;;27.60;5.32;;;;;;;;;;6192284;23;20027;-92
2022/01/04 01:32:44;;;;;;;12.15;4.65;;;;;;;;;;6216191;23;20020;-92
2022/01/04 01:35:11;;;;;;;21.17;5.20;;;;;;;;;;6215807;23;20045;-93
2022/01/04 01:37:37;;;;;;;15.32;4.57;;;;;;;;;;6216923;23;20048;-91
2022/01/04 01:40:04;;;;;;;32.30;7.38;;;;;;;;;;6218185;23;20062;-93
2022/01/04 01:42:30;;;;;;;26.85;6.10;;;;;;;;;;6217814;23;20017;-93
2022/01/04 01:44:56;;;;;;;16.30;4.82;;;;;;;;;;6191108;23;20019;-90
2022/01/04 01:47:22;;;;;;;19.80;5.07;;;;;;;;;;6191062;23;20024;-94
2022/01/04 01:49:49;;;;;;;16.50;5.93;;;;;;;;;;6215993;23;20040;-93
2022/01/04 01:52:15;;;;;;;16.33;5.60;;;;;;;;;;6190944;23;20021;-93
2022/01/04 01:54:41;;;;;;;20.90;5.18;;;;;;;;;;6216238;23;20020;-91
2022/01/04 01:57:07;;;;;;;25.27;5.03;;;;;;;;;;6215997;23;20097;-94
2022/01/04 01:59:33;;;;;;;21.75;5.13;;;;;;;;;;6191757;23;20075;-93
2022/01/04 02:01:59;;;;;;;19.05;4.65;;;;;;;;;;6220742;23;20020;-95
2022/01/04 02:04:26;;;;;;;26.33;5.20;;;;;;;;;;6196547;23;20508;-94
2022/01/04 02:06:52;;;;;;;21.70;4.63;;;;;;;;;;6197822;23;20012;-91
2022/01/04 02:09:18;;;;;;;20.25;4.15;;;;;;;;;;6198020;23;20023;-93
2022/01/04 02:11:44;;;;;;;17.20;4.35;;;;;;;;;;6197667;23;20345;-89
2022/01/04 02:14:10;;;;;;;14.77;4.60;;;;;;;;;;6197487;23;20048;-90
2022/01/04 02:16:36;;;;;;;18.92;4.25;;;;;;;;;;6197108;23;20396;-90
2022/01/04 02:19:04;;;;;;;24.35;5.78;;;;;;;;;;6250035;23;20054;-87
2022/01/04 02:21:31;;;;;;;17.83;4.72;;;7.80;99.90;;;;;;6197771;23;20027;-89
2022/01/04 02:23:57;;;;;;;24.48;5.43;;;;;;;;;;6224125;23;20016;-91
2022/01/04 02:26:23;;;;;;;24.13;6.07;;;;;;;;;;6225260;23;20070;-89
2022/01/04 02:28:50;;;;;;;30.38;5.93;;;;;;;;;;6199514;23;20121;-93
2022/01/04 02:31:17;;;;;;;17.27;5.25;;;;;;;;;;6197572;23;20097;-91
2022/01/04 02:33:43;;;;;;;33.83;6.72;;;;;;;;;;6198247;23;20330;-93
2022/01/04 02:36:09;;;;;;;17.73;6.22;;;;;;;;;;6197830;23;20345;-96
2022/01/04 02:38:37;;;;;;;30.70;7.30;;;;;;;;;;6223066;23;20020;-92
2022/01/04 02:41:03;;;;;;;19.17;6.25;;;;;;;;;;6198672;23;20027;-94
2022/01/04 02:43:29;;;;;;;23.63;6.60;;;;;;;;;;6223728;23;20050;-90
2022/01/04 02:45:55;;;;;;;33.40;7.18;;;;;;;;;;6198859;23;20016;-93
2022/01/04 02:48:23;;;;;;;20.33;7.10;;;;;;;;;;6198510;23;20024;-92
2022/01/04 02:50:50;;;;;;;37.90;7.75;;;;;;;;;;6222835;23;20095;-92
2022/01/04 02:53:16;;;;;;;24.55;6.80;;;;;;;;;;6222815;23;20039;-92
2022/01/04 02:55:42;;;;;;;19.58;7.07;;;;;;;;;;6222708;23;20020;-93
2022/01/04 02:58:08;;;;;;;22.60;7.32;;;;;;;;;;6197384;23;20036;-93
2022/01/04 03:00:35;;;;;;;22.67;7.22;;;;;;;;;;6197736;23;20023;-93
2022/01/04 03:03:01;;;;;;;30.70;8.13;;;;;;;;;;6197383;23;20016;-94
2022/01/04 03:05:27;;;;;;;26.33;6.65;;;;;;;;;;6197508;23;20470;-92
2022/01/04 03:07:53;;;;;;;17.83;6.75;;;;;;;;;;6223253;23;20023;-90
2022/01/04 03:10:19;;;;;;;27.08;6.80;;;;;;;;;;6197446;23;20013;-92
2022/01/04 03:12:45;;;;;;;23.73;6.35;;;;;;;;;;6222963;23;20070;-91
2022/01/04 03:15:12;;;;;;;34.42;7.57;;;;;;;;;;6222892;23;20016;-92
2022/01/04 03:17:38;;;;;;;32.28;6.68;;;;;;;;;;6197491;23;20059;-88
2022/01/04 03:20:04;;;;;;;31.10;7.13;;;;;;;;;;6222943;23;20016;-92
2022/01/04 03:22:30;;;;;;;31.30;6.05;;;;;;;;;;6222250;23;20028;-89
2022/01/04 03:24:56;;;;;;;13.63;5.70;;;;;;;;;;6223178;23;20024;-90
2022/01/04 03:27:22;;;;;;;17.60;5.70;;;;;;;;;;6248886;23;20410;-89
2022/01/04 03:29:48;;;;;;;30.45;5.97;;;;;;;;;;6197255;23;20066;-91
2022/01/04 03:32:14;;;;;;;34.65;7.70;;;;;;;;;;6221892;23;20024;-91
2022/01/04 03:34:40;;;;;;;24.83;6.88;;;;;;;;;;6221796;23;20063;-93
2022/01/04 03:37:06;;;;;;;21.85;6.00;;;;;;;;;;6196346;23;20074;-91
2022/01/04 03:39:32;;;;;;;16.83;6.22;;;;;;;;;;6196977;23;20016;-88
2022/01/04 03:41:59;;;;;;;21.45;6.07;;;;;;;;;;6197007;23;20472;-89
2022/01/04 03:44:25;;;;;;;21.17;6.68;;;;;;;;;;6196813;23;20008;-88
2022/01/04 03:46:52;;;;;;;17.35;5.65;;;;;;;;;;6221975;23;20070;-91
2022/01/04 03:49:19;;;;;;;15.93;5.43;;;;;;;;;;6196934;23;20020;-87
2022/01/04 03:51:45;;;;;;;35.88;6.20;;;;;;;;;;6196333;23;20019;-92
2022/01/04 03:54:11;;;;;;;21.23;6.07;;;;;;;;;;6196618;23;20022;-93
2022/01/04 03:56:37;;;;;;;25.33;6.22;;;;;;;;;;6221354;23;20019;-88
2022/01/04 03:59:03;;;;;;;22.33;5.35;;;;;;;;;;6223255;23;20020;-93
2022/01/04 04:01:29;;;;;;;27.55;7.57;;;;;;;;;;6197089;23;20047;-89
2022/01/04 04:03:55;;;;;;;18.83;6.40;;;;;;;;;;6222241;23;20019;-92
2022/01/04 04:06:22;;;;;;;31.35;5.80;;;;;;;;;;6197366;23;20020;-89
2022/01/04 04:08:48;;;;;;;13.00;5.20;;;;;;;;;;6197888;23;20090;-91
2022/01/04 04:11:14;;;;;;;21.02;5.13;;;;;;;;;;6222705;23;20027;-92
2022/01/04 04:13:40;;;;;;;22.58;6.40;;;;;;;;;;6197069;23;20083;-94
2022/01/04 04:16:07;;;;;;;19.75;5.30;;;;;;;;;;6221996;23;20095;-93
2022/01/04 04:18:33;;;;;;;27.48;6.40;;;;;;;;;;6221420;23;20024;-89
2022/01/04 04:20:59;;;;;;;17.35;4.95;;;;;;;;;;6196712;23;20015;-90
2022/01/04 04:23:25;;;;;;;20.85;5.50;;;;;;;;;;6196892;23;20453;-93
2022/01/04 04:25:51;;;;;;;24.20;5.93;;;;;;;;;;6221634;23;20022;-93
2022/01/04 04:28:17;;;;;;;24.73;5.53;;;;;;;;;;6221305;23;20051;-92
2022/01/04 04:30:43;;;;;;;30.60;8.35;;;;;;;;;;6196352;23;20078;-92
2022/01/04 04:33:09;;;;;;;24.85;5.68;;;;;;;;;;6221315;23;20020;-93
2022/01/04 04:35:35;;;;;;;21.63;6.53;;;;;;;;;;6221104;23;20042;-90
2022/01/04 04:38:02;;;;;;;19.48;5.53;;;8.10;99.90;;;;;;6196133;23;20023;-92
2022/01/04 04:40:28;;;;;;;23.55;5.88;;;;;;;;;;6221396;23;20070;-91
2022/01/04 04:42:54;;;;;;;25.15;6.82;;;;;;;;;;6221093;23;20012;-92
2022/01/04 04:45:21;;;;;;;18.83;5.43;;;;;;;;;;6221288;23;20026;-94
2022/01/04 04:47:47;;;;;;;20.85;6.05;;;;;;;;;;6196220;23;20042;-91
2022/01/04 04:50:13;;;;;;;32.90;6.57;;;;;;;;;;6197001;23;20319;-93
2022/01/04 04:52:39;;;;;;;31.05;6.80;;;;;;;;;;6196367;23;20024;-93
2022/01/04 04:55:05;;;;;;;20.92;5.93;;;;;;;;;;6196732;23;20043;-92
2022/01/04 04:57:32;;;;;;;22.23;5.38;;;;;;;;;;6196816;23;20071;-92
2022/01/04 04:59:58;;;;;;;20.73;6.10;;;;;;;;;;6196123;23;20012;-93
2022/01/04 05:02:24;;;;;;;24.35;5.75;;;;;;;;;;6195756;23;20099;-93
2022/01/04 05:04:50;;;;;;;20.33;6.10;;;;;;;;;;6196214;23;20020;-93
2022/01/04 05:07:16;;;;;;;25.70;5.45;;;;;;;;;;6196587;23;20026;-92
2022/01/04 05:09:42;;;;;;;24.73;5.97;;;;;;;;;;6196276;23;20052;-92
2022/01/04 05:12:08;;;;;;;23.98;6.32;;;;;;;;;;6196353;23;20020;-93
2022/01/04 05:14:36;;;;;;;24.55;6.78;;;;;;;;;;6221189;23;20016;-94
2022/01/04 05:17:02;;;;;;;23.98;6.13;;;;;;;;;;6221390;23;20029;-93
2022/01/04 05:19:28;;;;;;;33.55;6.47;;;;;;;;;;6197432;23;20012;-94
2022/01/04 05:21:54;;;;;;;19.27;6.43;;;;;;;;;;6221936;23;20393;-94
2022/01/04 05:24:20;;;;;;;22.80;6.38;;;;;;;;;;6222037;23;20084;-92
2022/01/04 05:26:46;;;;;;;14.45;4.78;;;;;;;;;;6221141;23;20146;-92
2022/01/04 05:29:12;;;;;;;23.35;5.97;;;;;;;;;;6196263;23;20143;-93
2022/01/04 05:31:38;;;;;;;23.98;6.75;;;;;;;;;;6195756;23;20016;-91
2022/01/04 05:34:04;;;;;;;19.23;5.50;;;;;;;;;;6220373;23;20012;-92
2022/01/04 05:36:30;;;;;;;27.65;6.20;;;;;;;;;;6196130;23;20099;-91
2022/01/04 05:38:56;;;;;;;20.67;6.57;;;;;;;;;;6196102;23;20100;-91
2022/01/04 05:41:22;;;;;;;29.83;5.80;;;;;;;;;;6223066;23;20481;-94
2022/01/04 05:43:48;;;;;;;27.67;5.43;;;;;;;;;;6223352;23;20020;-92
2022/01/04 05:46:18;;;;;;;20.85;4.72;;;;;;;;;;6198479;23;20031;-93
2022/01/04 05:48:44;;;;;;;35.33;7.50;;;;;;;;;;6198249;23;20058;-92
2022/01/04 05:51:10;;;;;;;26.27;6.38;;;;;;;;;;6197919;23;20023;-93
2022/01/04 05:53:36;;;;;;;17.20;6.15;;;;;;;;;;6222737;23;20027;-92
2022/01/04 05:56:02;;;;;;;23.40;6.28;;;;;;;;;;6198015;23;20017;-94
2022/01/04 05:58:28;;;;;;;21.52;6.45;;;;;;;;;;6223395;23;20027;-91
2022/01/04 06:00:54;;;;;;;30.23;7.88;;;;;;;;;;6197834;23;20034;-92
2022/01/04 06:03:20;;;;;;;30.58;6.60;;;;;;;;;;6197821;23;20513;-91
2022/01/04 06:05:46;;;;;;;26.38;7.05;;;;;;;;;;6197632;23;20024;-94
2022/01/04 06:08:12;;;;;;;17.02;6.57;;;;;;;;;;6223578;23;20023;-91
2022/01/04 06:10:40;;;;;;;20.92;6.05;;;;;;;;;;6197801;23;20016;-94
2022/01/04 06:15:33;;;;;;;24.33;6.22;;;;;;;;;;6223208;23;20032;-93
2022/01/04 06:17:59;;;;;;;24.75;7.25;;;;;;;;;;6224327;23;20020;-94
2022/01/04 06:20:27;;;;;;;24.65;6.38;;;;;;;;;;6199587;23;20085;-94
2022/01/04 06:22:54;;;;;;;24.45;7.03;;;;;;;;;;6223735;23;20480;-94
2022/01/04 06:25:21;;;;;;;42.03;7.20;;;;;;;;;;6198673;23;20012;-92
2022/01/04 06:27:56;;;;;;;28.63;6.40;;;;;;;;;;6224263;23;20024;-94
2022/01/04 06:30:23;;;;;;;19.65;5.85;;;;;;;;;;6199431;23;20515;-94
2022/01/04 06:32:50;;;;;;;24.67;5.93;;;;;;;;;;6224262;23;20042;-90
2022/01/04 06:35:16;;;;;;;17.60;5.55;;;;;;;;;;6221858;23;20089;-87
2022/01/04 06:37:43;;;;;;;23.25;6.20;;;;;;;;;;6198390;23;20020;-89
2022/01/04 06:40:10;;;;;;;16.88;6.38;;;;;;;;;;6199215;23;20023;-91
2022/01/04 06:42:36;;;;;;;16.40;6.05;;;;;;;;;;6197534;23;20388;-89
2022/01/04 06:45:02;;;;;;;16.15;5.38;;;;;;;;;;6197637;23;20020;-87
2022/01/04 06:47:28;;;;;;;12.30;4.95;;;;;;;;;;6197297;23;20016;-90
2022/01/04 06:49:54;;;;;;;20.00;4.78;;;;;;;;;;6222683;23;20146;-90
2022/01/04 06:52:21;;;;;;;23.92;5.57;;;;;;;;;;6196913;23;20020;-92
2022/01/04 06:54:47;;;;;;;22.05;5.00;;;;;;;;;;6221890;23;20012;-91
2022/01/04 06:57:13;;;;;;;20.67;5.55;;;;;;;;;;6196694;23;20020;-87
2022/01/04 06:59:39;;;;;;;16.70;6.15;;;;;;;;;;6196895;23;20020;-86
2022/01/04 07:02:05;;;;;;;19.38;4.50;;;;;;;;;;6196894;23;20345;-87
2022/01/04 07:04:31;;;;;;;15.60;4.88;;;;;;;;;;6196514;23;20020;-91
2022/01/04 07:06:57;;;;;;;18.60;5.07;;;;;;;;;;6196862;23;20016;-88
2022/01/04 07:09:23;;;;;;;22.17;4.82;;;;;;;;;;6197082;23;20341;-91
2022/01/04 07:11:51;;;;;;;11.25;4.45;;;;;;;;;;6221968;23;20020;-93
2022/01/04 07:14:17;;;;;;;11.20;4.40;;;;;;;;;;6221939;23;20020;-93
2022/01/04 07:16:43;;;;;;;13.23;3.38;;;;;;;;;;6197582;23;20069;-89
2022/01/04 07:19:09;;;;;;;10.57;3.70;;;;;;;;;;6199203;23;20016;-90
2022/01/04 07:21:36;;;;;;;12.77;3.80;;;;;;;;;;6198815;23;20043;-87
2022/01/04 07:24:04;;;;;;;12.10;4.60;;;;;;;;;;6197729;23;20028;-90
2022/01/04 07:26:30;;;;;;;18.92;5.40;;;;;;;;;;6198337;23;20062;-93
2022/01/04 07:28:56;;;;;;;13.00;4.85;;;;;;;;;;6200078;23;20020;-92
2022/01/04 07:31:22;;;;;;;17.27;4.47;;;;;;;;;;6199283;23;20052;-91
2022/01/04 07:33:48;;;;;;;19.70;6.53;;;;;;;;;;6199147;23;20027;-90
2022/01/04 07:36:14;;;;;;;16.67;3.95;;;;;;;;;;6196637;23;20012;-92
2022/01/04 07:38:41;;;;;;;12.48;4.70;;;;;;;;;;6222484;23;20024;-95
2022/01/04 07:41:07;;;;;;;16.77;5.20;;;;;;;;;;6249234;23;20023;-92
2022/01/04 07:43:33;;;;;;;22.35;5.05;;;;;;;;;;6248965;23;20401;-94
2022/01/04 07:45:59;;;;;;;14.07;7.07;;;;;;;;;;6221822;23;20016;-92
2022/01/04 07:48:25;;;;;;;14.18;4.90;;;;;;;;;;6248674;23;20074;-88
2022/01/04 07:50:55;;;;;;;18.05;6.10;;;;;;;;;;6221482;23;20020;-90
2022/01/04 07:53:22;;;;;;;18.13;5.00;;;;;;;;;;6196692;23;20509;-92
2022/01/04 07:55:48;;;;;;;22.88;5.88;;;;;;;;;;6196075;23;20016;-93
2022/01/04 07:58:14;;;;;;;16.42;5.35;;;;;;;;;;6221571;23;20046;-93
2022/01/04 08:00:40;;;;;;;26.35;5.90;;;;;;;;;;6221617;23;20023;-90
2022/01/04 08:03:07;;;;;;;19.85;5.05;;;;;;;;;;6220902;23;20445;-88
2022/01/04 08:05:33;;;;;;;24.15;5.05;;;;;;;;;;6221622;22;20031;-90
2022/01/04 08:08:00;;;;;;;16.63;6.05;;;;;;;;;;6248805;23;20505;-92
2022/01/04 08:10:26;;;;;;;18.20;5.72;;;;;;;;;;6248453;23;20064;-94
2022/01/04 08:12:52;;;;;;;12.32;4.15;;;;;;;;;;6222078;23;20016;-93
2022/01/04 08:15:18;;;;;;;22.95;4.78;;;;;;;;;;6222320;23;20012;-92
2022/01/04 08:17:44;;;;;;;22.33;5.07;;;;;;;;;;6222152;23;20027;-95
2022/01/04 08:20:10;;;;;;;20.73;4.97;;;;;;;;;;6248677;23;20019;-91
2022/01/04 08:22:36;;;;;;;17.20;4.70;;;;;;;;;;6248664;23;20338;-91
2022/01/04 08:25:04;;;;;;;16.88;4.93;;;;;;;;;;6221538;23;20024;-93
2022/01/04 08:27:30;;;;;;;18.13;4.72;;;;;;;;;;6196496;23;20111;-89
2022/01/04 08:29:57;;;;;;;23.05;6.05;;;;;;;;;;6196289;23;20016;-90
2022/01/04 08:32:23;;;;;;;12.25;4.45;;;;;;;;;;6221336;23;20027;-93
2022/01/04 08:34:49;;;;;;;3.20;1.75;;;;;;;;;;6196182;23;20469;-96
2022/01/04 08:37:15;;;;;;;6.10;1.23;;;;;;;;;;6195854;23;20051;-92
2022/01/04 08:39:41;;;;;;;5.38;1.80;;;;;;;;;;6196071;23;20020;-92
2022/01/04 08:42:07;;;;;;;2.38;1.00;;;;;;;;;;6196073;23;20048;-92
2022/01/04 08:44:37;;;;;;;7.90;2.63;;;;;;;;;;6221387;23;20059;-91
2022/01/04 08:47:03;;;;;;;5.60;1.77;;;;;;;;;;6196604;23;20051;-93
2022/01/04 08:49:30;;;;;;;4.50;1.30;;;;;;;;;;6196383;23;20035;-93
2022/01/04 08:51:56;;;;;;;4.07;1.30;;;;;;;;;;6197668;23;20017;-93
2022/01/04 08:54:22;;;;;;;1.95;1.13;;;;;;;;;;6196145;23;20454;-89
2022/01/04 08:56:48;;;;;;;4.90;2.00;;;;;;;;;;6220911;23;20090;-91
2022/01/04 08:59:14;;;;;;;4.38;1.13;;;;;;;;;;6195880;23;20450;-90
2022/01/04 09:01:41;;;;;;;2.70;1.23;;;;;;;;;;6195804;23;20103;-92
2022/01/04 09:04:07;;;;;;;1.00;0.85;;;;;;;;;;6195622;23;20106;-92
2022/01/04 09:06:34;;;;;;;3.85;1.20;;;;;;;;;;6195540;23;20016;-90
2022/01/04 09:09:00;;;;;;;3.05;1.10;;;;;;;;;;6195623;23;20024;-90
2022/01/04 09:11:26;;;;;;;1.83;1.00;;;;;;;;;;6197138;23;20357;-95
2022/01/04 09:14:05;;;;;;;5.07;1.13;;;;;;;;;;6221784;23;20054;-93
2022/01/04 09:19:16;;;;;;;5.20;1.42;;;;;;;;;;6220967;23;20055;-95
2022/01/04 09:21:42;;;;;;;5.35;1.13;;;;;;;;;;6196152;23;20012;-94
2022/01/04 09:24:08;;;;;;;4.18;0.98;;;;;;;;;;6195533;23;20024;-92
2022/01/04 09:26:34;;;;;;;3.67;1.35;;;;;;;;;;6195863;23;20012;-91
2022/01/04 09:29:00;;;;;;;3.25;1.30;;;;;;;;;;6196234;23;20099;-92
2022/01/04 09:31:27;;;;;;;7.35;1.10;;;;;;;;;;6220979;23;20019;-91
2022/01/04 09:33:54;;;;;;;3.22;0.85;;;;;;;;;;6195653;23;20024;-89
2022/01/04 09:36:20;;;;;;;3.40;1.95;;;;;;;;;;6220761;23;20016;-89
2022/01/04 09:38:46;;;;;;;4.10;1.30;;;;;;;;;;6195755;23;20496;-92
2022/01/04 09:41:12;;;;;;;6.40;1.48;;;;;;;;;;6220773;23;20098;-92
2022/01/04 09:43:38;;;;;;;6.35;1.30;;;;;;;;;;6196759;23;20023;-92
2022/01/04 09:46:05;;;;;;;4.47;1.20;;;;;;;;;;6195636;23;20414;-92
2022/01/04 09:48:31;;;;;;;13.63;1.45;;;;;;;;;;6195775;23;20024;-92
2022/01/04 09:50:57;;;;;;;9.45;1.20;;;;;;;;;;6195461;23;20070;-91
2022/01/04 09:53:24;;;;;;;3.78;1.00;;;;;;;;;;6195159;23;20020;-90
2022/01/04 09:55:51;;;;;;;1.35;0.90;;;;;;;;;;6196006;23;20073;-92
2022/01/04 09:58:18;;;;;;;1.98;0.85;;;;;;;;;;6195303;23;20026;-90
2022/01/04 10:00:44;;;;;;;2.28;0.80;;;;;;;;;;6220558;23;20095;-90
2022/01/04 10:03:18;;;;;;;1.05;0.65;;;;;;;;;;6219521;23;20023;-91
2022/01/04 10:05:44;;;;;;;;;;;6.40;99.90;;;;;;6195513;23;20047;-91
2022/01/04 10:08:11;;;;;;;2.20;0.80;;;;;;;;;;6194639;23;19927;-90
2022/01/04 10:10:37;;;;;;;4.00;0.90;;;;;;;;;;6194999;23;20442;-90
2022/01/04 10:13:05;;;;;;;4.72;0.73;;;;;;;;;;6220648;23;20354;-90
2022/01/04 10:15:40;;;;;;;1.90;1.58;;;;;;;;;;6195429;23;20050;-90
2022/01/04 10:18:21;;;;;;;6.10;1.52;;;;;;;;;;6195210;23;20020;-89
2022/01/04 10:20:51;;;;;;;3.97;0.80;;;;;;;;;;6195062;23;20503;-90
2022/01/04 10:23:22;;;;;;;0.90;0.60;;;;;;;;;;6195413;23;20062;-90
2022/01/04 10:25:50;;;;;;;3.90;1.00;;;;;;;;;;6220513;23;20023;-91
2022/01/04 10:28:32;;;;;;;1.98;0.70;;;;;;;;;;6197257;23;20049;-91
2022/01/04 10:31:04;;;;;;;1.42;0.90;;;;;;;;;;6197457;23;20020;-93
2022/01/04 10:33:32;;;;;;;3.67;0.80;;;;;;;;;;6222284;23;20453;-90
2022/01/04 10:35:59;;;;;;;6.70;1.40;;;;;;;;;;6197602;23;20016;-92
2022/01/04 10:38:28;;;;;;;3.90;0.68;;;;;;;;;;6222416;23;20046;-93
2022/01/04 10:40:57;;;;;;;5.82;0.93;;;;;;;;;;6250056;23;20050;-90
2022/01/04 10:43:24;;;;;;;2.08;0.90;;;;;;;;;;6249838;23;20074;-94
2022/01/04 10:45:50;;;;;;;9.07;0.90;;;;;;;;;;6202228;23;20028;-95
2022/01/04 10:48:19;;;;;;;2.63;1.00;;;;;;;;;;6228894;23;20012;-94
2022/01/04 10:50:48;;;;;;;1.15;0.73;;;;;;;;;;6223228;23;20055;-96
2022/01/04 10:53:16;;;;;;;2.65;1.20;;;;;;;;;;6223290;23;20016;-96
2022/01/04 10:55:43;;;;;;;3.53;1.10;;;;;;;;;;6222708;23;20018;-94
2022/01/04 10:58:18;;;;;;;3.75;1.30;;;;;;;;;;6222648;23;20343;-96
2022/01/04 11:00:49;;;;;;;3.67;0.98;;;;;;;;;;6197455;23;20019;-96
2022/01/04 11:03:22;;;;;;;5.10;1.60;;;;;;;;;;6222861;23;20023;-96
2022/01/04 11:05:52;;;;;;;4.63;1.40;;;;;;;;;;6222761;23;20079;-95
2022/01/04 11:08:18;;;;;;;2.38;1.08;;;;;;;;;;6197041;23;20019;-96
2022/01/04 11:10:44;;;;;;;2.30;1.10;;;;;;;;;;6197187;23;20016;-93
2022/01/04 11:13:10;;;;;;;6.45;1.13;;;;;;;;;;6196599;23;20017;-96
2022/01/04 11:15:37;;;;;;;8.80;1.27;;;;;;;;;;6196541;23;20445;-92
2022/01/04 11:18:03;;;;;;;8.70;1.85;;;;;;;;;;6222434;23;20111;-92
2022/01/04 11:20:29;;;;;;;2.28;0.88;;;;;;;;;;6197140;23;20012;-90
2022/01/04 11:22:58;;;;;;;3.65;1.20;;;;;;;;;;6196983;23;20023;-91
2022/01/04 11:25:24;;;;;;;2.50;1.02;;;;;;;;;;6197011;23;20016;-93
2022/01/04 11:27:53;;;;;;;1.85;0.98;;;;;;;;;;6222264;23;20052;-93
2022/01/04 11:30:33;;;;;;;1.48;0.93;;;;;;;;;;6197439;23;20146;-93
2022/01/04 11:33:15;;;;;;;5.00;1.00;;;;;;;;;;6197100;23;20341;-93
2022/01/04 11:35:41;;;;;;;2.85;1.02;;;;;;;;;;6196904;23;20019;-93
2022/01/04 11:38:07;;;;;;;4.07;1.10;;;;;;;;;;6197176;23;20020;-94
2022/01/04 11:40:36;;;;;;;8.73;0.98;;;;;;;;;;6196434;23;20020;-92
2022/01/04 11:43:04;;;;;;;4.97;1.20;;;;;;;;;;6196555;23;20043;-93
2022/01/04 11:45:48;;;;;;;3.78;1.15;;;;;;;;;;6221630;23;20020;-90
2022/01/04 11:48:23;;;;;;;4.32;1.00;;;;;;;;;;6222355;23;20453;-92
2022/01/04 11:50:49;;;;;;;8.30;1.25;;;;;;;;;;6221947;23;20008;-92
2022/01/04 11:53:16;;;;;;;7.68;1.25;;;;;;;;;;6196146;23;20024;-92
2022/01/04 11:55:48;;;;;;;3.78;1.45;;;;;;;;;;6196854;23;20012;-92
2022/01/04 11:58:17;;;;;;;6.18;1.38;;;;;;;;;;6222110;23;20071;-91
2022/01/04 12:00:56;;;;;;;3.40;1.13;;;;;;;;;;6197798;23;20020;-91
2022/01/04 12:03:35;;;;;;;3.20;1.70;;;;;;;;;;6192267;23;20063;-91
2022/01/04 12:06:02;;;;;;;6.40;1.10;;;;;;;;;;6191678;23;20016;-91
2022/01/04 12:08:40;;;;;;;5.53;1.50;;;;;;;;;;6191573;23;20450;-91
2022/01/04 12:11:26;;;;;;;4.60;1.38;;;;;;;;;;6191863;23;20032;-92
2022/01/04 12:13:52;;;;;;;5.88;2.42;;;;;;;;;;6080423;23;20014;-93
2022/01/04 12:16:37;;;;;;;1.92;1.73;;;5.90;99.90;;;;;;6080004;23;20018;-89
2022/01/04 12:19:04;;;;;;;8.13;2.30;;;;;;;;;;6077728;23;20479;-91
2022/01/04 12:21:32;;;;;;;5.78;1.38;;;;;;;;;;6077752;23;20061;-91
2022/01/04 12:23:58;;;;;;;7.88;1.58;;;;;;;;;;6101415;23;20018;-89
2022/01/04 12:26:32;;;;;;;4.97;1.98;;;;;;;;;;6077398;23;20022;-92
2022/01/04 12:28:58;;;;;;;6.57;2.33;;;;;;;;;;6078906;23;20018;-93
2022/01/04 12:31:25;;;;;;;4.60;1.98;;;;;;;;;;6079126;23;20076;-91
2022/01/04 12:33:55;;;;;;;2.22;1.40;;;;;;;;;;6077645;23;20112;-93
2022/01/04 12:36:34;;;;;;;4.78;1.58;;;;;;;;;;6077285;23;20018;-94
2022/01/04 12:39:04;;;;;;;5.80;1.33;;;;;;;;;;6078585;23;20026;-92
2022/01/04 12:41:31;;;;;;;7.88;1.77;;;;;;;;;;6101434;23;20372;-93
2022/01/04 12:43:59;;;;;;;10.48;1.38;;;;;;;;;;6077749;23;20079;-89
2022/01/04 12:46:34;;;;;;;2.80;1.20;;;;;;;;;;6077857;23;20021;-92
2022/01/04 12:49:01;;;;;;;6.05;1.40;;;;;;;;;;6077504;23;20028;-91
2022/01/04 12:51:30;;;;;;;10.20;1.65;;;;;;;;;;6158071;23;20016;-91
2022/01/04 12:53:58;;;;;;;4.72;1.42;;;;;;;;;;6192853;23;20074;-90
2022/01/04 12:56:25;;;;;;;4.68;1.50;;;;;;;;;;6191420;23;20031;-91
2022/01/04 12:58:51;;;;;;;7.00;1.50;;;;;;;;;;6217806;23;20013;-95
2022/01/04 13:01:37;;;;;;;5.20;1.23;;;;;;;;;;6191634;23;20023;-94
2022/01/04 13:04:19;;;;;;;7.93;1.33;;;;;;;;;;6216627;23;20016;-95
2022/01/04 13:06:45;;;;;;;2.13;0.93;;;;;;;;;;6191562;23;20043;-93
2022/01/04 13:09:11;;;;;;;4.72;1.73;;;;;;;;;;6191489;23;20024;-92
2022/01/04 13:11:47;;;;;;;3.22;1.90;;;;;;;;;;6191447;23;20400;-95
2022/01/04 13:14:18;;;;;;;6.68;1.92;;;;;;;;;;6192164;23;20158;-94
2022/01/04 13:16:45;;;;;;;6.13;1.38;;;;;;;;;;6191551;23;20519;-95
2022/01/04 13:19:12;;;;;;;7.65;2.53;;;;;;;;;;6217320;23;20012;-91
2022/01/04 13:21:39;;;;;;;3.25;1.88;;;;;;;;;;6191761;23;20099;-94
2022/01/04 13:24:05;;;;;;;6.05;2.17;;;;;;;;;;6192583;23;20016;-90
2022/01/04 13:26:31;;;;;;;2.67;1.70;;;;;;;;;;6191696;23;20021;-90
2022/01/04 13:28:58;;;;;;;4.43;1.50;;;;;;;;;;6192905;23;20016;-93
2022/01/04 13:31:25;;;;;;;13.75;1.88;;;;;;;;;;6217329;23;20065;-91
2022/01/04 13:33:52;;;;;;;5.70;1.80;;;;;;;;;;6192077;23;20017;-93
2022/01/04 13:36:18;;;;;;;5.28;1.40;;;;;;;;;;6192624;23;20017;-94
2022/01/04 13:38:44;;;;;;;7.93;1.52;;;;;;;;;;6192621;23;20036;-96
2022/01/04 13:41:11;;;;;;;3.72;1.20;;;;;;;;;;6192401;23;20034;-92
2022/01/04 13:43:40;;;;;;;14.15;1.55;;;;;;;;;;6191483;23;20099;-93
2022/01/04 13:46:15;;;;;;;5.28;2.25;;;;;;;;;;6190669;23;20504;-93
2022/01/04 13:48:42;;;;;;;4.88;1.70;;;;;;;;;;6191033;23;20358;-92
2022/01/04 13:51:18;;;;;;;5.75;2.03;;;;;;;;;;6190497;23;20340;-92
2022/01/04 13:53:53;;;;;;;6.88;1.52;;;;;;;;;;6192049;23;20099;-91
2022/01/04 13:56:20;;;;;;;3.03;1.35;;;;;;;;;;6192708;23;20318;-91
2022/01/04 13:58:49;;;;;;;1.95;1.10;;;;;;;;;;6191785;23;20017;-92
2022/01/04 14:01:17;;;;;;;6.20;1.30;;;;;;;;;;6194281;23;20052;-93
2022/01/04 14:03:44;;;;;;;9.57;1.45;;;;;;;;;;6199164;23;20024;-92
2022/01/04 14:06:29;;;;;;;2.67;1.98;;;;;;;;;;6200018;23;20537;-94
2022/01/04 14:08:55;;;;;;;5.75;2.33;;;;;;;;;;6193651;23;20019;-94
2022/01/04 14:11:22;;;;;;;8.73;1.88;;;;;;;;;;6192918;23;20017;-95
2022/01/04 14:13:50;;;;;;;10.73;1.70;;;;;;;;;;6192665;23;20021;-95
2022/01/04 14:16:16;;;;;;;2.83;1.40;;;;;;;;;;6193225;23;20042;-96
2022/01/04 14:19:01;;;;;;;5.35;2.08;;;;;;;;;;6192955;23;20027;-95
2022/01/04 14:21:37;;;;;;;9.35;3.42;;;;;;;;;;6193080;23;20048;-95
2022/01/04 14:24:06;;;;;;;5.18;2.53;;;;;;;;;;6192814;23;20017;-94
2022/01/04 14:26:32;;;;;;;8.55;2.30;;;;;;;;;;6192900;23;20052;-93
2022/01/04 14:29:02;;;;;;;11.15;2.30;;;;;;;;;;6193359;23;20023;-93
2022/01/04 14:31:28;;;;;;;4.85;1.98;;;;;;;;;;6193856;23;20021;-95
2022/01/04 14:33:54;;;;;;;5.35;1.70;;;;;;;;;;6193360;23;20020;-95
2022/01/04 14:36:20;;;;;;;8.07;2.03;;;;;;;;;;6193526;23;20351;-95
2022/01/04 14:38:46;;;;;;;4.82;1.65;;;;;;;;;;6192971;23;20062;-95
2022/01/04 14:41:12;;;;;;;5.20;1.52;;;;;;;;;;6192098;23;20458;-92
2022/01/04 14:43:38;;;;;;;3.55;1.55;;;;;;;;;;6192532;23;20016;-92
2022/01/04 14:46:07;;;;;;;5.93;1.75;;;;;;;;;;6193797;23;20091;-92